createdAt,value
2022-08-25T10:24:46.910Z,24.61
2022-08-25T10:25:57.868Z,24.63
2022-08-25T10:26:47.773Z,24.67
2022-08-25T10:27:46.765Z,24.69
2022-08-25T10:28:46.744Z,24.73
2022-08-25T10:29:46.734Z,24.75
2022-08-25T10:30:46.760Z,24.76
2022-08-25T10:31:46.723Z,24.77
2022-08-25T10:32:46.723Z,24.79
2022-08-25T10:33:46.717Z,24.82
2022-08-25T10:34:46.683Z,24.85
2022-08-25T10:35:47.667Z,24.87
2022-08-25T10:36:47.138Z,24.88
2022-08-25T10:37:46.625Z,24.91
2022-08-25T10:38:46.614Z,24.94
2022-08-25T10:39:46.624Z,24.97
2022-08-25T10:40:47.582Z,25.00
2022-08-25T10:41:46.585Z,25.02
2022-08-25T10:42:46.574Z,25.06
2022-08-25T10:43:46.602Z,25.07
2022-08-25T10:44:46.547Z,25.10
2022-08-25T10:45:46.582Z,25.15
2022-08-25T10:46:46.503Z,25.16
2022-08-25T10:47:46.504Z,25.19
2022-08-25T10:48:46.494Z,25.24
2022-08-25T13:49:36.732Z,28.43
2022-08-25T13:50:36.756Z,28.43
2022-08-25T13:51:36.651Z,28.43
2022-08-25T13:52:36.670Z,28.44
2022-08-25T13:53:36.671Z,28.41
2022-08-25T13:54:39.167Z,28.40
2022-08-25T13:55:38.171Z,28.38
2022-08-25T13:56:40.984Z,28.35
2022-08-25T13:57:36.578Z,28.36
2022-08-25T13:58:38.859Z,28.35
2022-08-25T13:59:40.252Z,28.32
2022-08-25T14:00:36.530Z,28.31
2022-08-25T14:01:48.300Z,28.28
2022-08-25T14:02:37.581Z,28.25
2022-08-25T14:03:36.563Z,28.25
2022-08-25T14:04:36.509Z,28.22
2022-08-25T14:05:36.462Z,28.21
2022-08-25T14:06:36.477Z,28.19
2022-08-25T14:07:36.450Z,28.21
2022-08-25T14:08:36.432Z,28.19
2022-08-25T14:09:36.421Z,28.17
2022-08-25T14:10:36.399Z,28.14
2022-08-25T14:11:36.387Z,28.11
2022-08-25T14:12:36.361Z,28.09
2022-08-25T14:13:36.369Z,28.07
2022-08-25T14:14:36.350Z,28.06
2022-08-25T14:15:36.331Z,28.06
2022-08-25T14:16:36.353Z,28.06
2022-08-25T14:17:39.991Z,28.04
2022-08-25T14:18:36.300Z,28.03
2022-08-25T14:19:36.279Z,28.01
2022-08-25T14:20:36.325Z,27.99
2022-08-25T14:21:36.248Z,27.99
2022-08-25T14:22:36.239Z,27.98
2022-08-25T14:23:36.227Z,27.96
2022-08-25T14:24:40.751Z,27.95
2022-08-25T14:25:36.238Z,27.92
2022-08-25T14:26:36.189Z,27.94
2022-08-25T14:27:42.067Z,27.91
2022-08-25T14:28:37.158Z,27.88
2022-08-25T14:29:36.154Z,27.88
2022-08-25T14:30:37.137Z,27.88
2022-08-25T14:31:36.209Z,27.88
2022-08-25T14:32:36.110Z,27.86
2022-08-25T14:33:36.417Z,27.86
2022-08-25T14:34:36.076Z,27.86
2022-08-25T14:35:36.064Z,27.85
2022-08-25T14:36:36.095Z,27.85
2022-08-25T14:37:36.045Z,27.80
2022-08-25T14:38:36.055Z,27.79
2022-08-25T14:39:36.015Z,27.76
2022-08-25T14:40:36.026Z,27.76
2022-08-25T14:41:35.977Z,27.74
2022-08-25T14:42:35.976Z,27.73
2022-08-25T14:43:35.957Z,27.71
2022-08-25T14:44:35.947Z,27.70
2022-08-25T14:45:35.987Z,27.70
2022-08-25T14:46:35.947Z,27.67
2022-08-25T14:47:35.908Z,27.67
2022-08-25T14:48:35.902Z,27.64
2022-08-25T14:49:35.896Z,27.62
2022-08-25T14:50:35.871Z,27.62
2022-08-25T14:51:36.610Z,27.61
2022-08-25T14:52:35.833Z,27.61
2022-08-25T14:53:35.829Z,27.59
2022-08-25T14:54:37.576Z,27.58
2022-08-25T15:30:31.160Z,26.94
2022-08-25T15:31:29.956Z,26.92
2022-08-25T15:32:28.778Z,26.91
2022-08-25T15:33:28.754Z,26.86
2022-08-25T15:34:28.755Z,26.84
2022-08-25T15:35:29.259Z,26.84
2022-08-25T15:36:28.713Z,26.81
2022-08-25T15:37:28.694Z,26.80
2022-08-25T15:38:28.705Z,26.80
2022-08-25T15:39:28.684Z,26.79
2022-08-25T15:40:28.689Z,26.77
2022-08-25T15:41:28.644Z,26.77
2022-08-25T15:42:28.691Z,26.76
2022-08-25T15:43:28.652Z,26.74
2022-08-25T15:44:29.887Z,26.74
2022-08-25T15:45:28.597Z,26.73
2022-08-25T15:46:28.625Z,26.72
2022-08-25T15:47:28.563Z,26.67
2022-08-25T15:48:28.562Z,26.67
2022-08-25T15:49:29.704Z,26.65
2022-08-25T15:50:28.524Z,26.65
2022-08-25T15:51:28.504Z,26.64
2022-08-25T15:52:44.532Z,26.62
2022-08-25T15:53:29.493Z,26.62
2022-08-25T15:54:28.474Z,26.61
2022-08-25T15:55:28.503Z,26.59
2022-08-25T15:56:28.452Z,26.58
2022-08-25T15:57:28.449Z,26.58
2022-08-25T15:58:28.445Z,26.55
2022-08-25T15:59:28.411Z,26.54
2022-08-25T16:00:28.438Z,26.50
2022-08-25T16:01:30.531Z,26.49
2022-08-25T16:02:28.399Z,26.46
2022-08-25T16:03:28.375Z,26.44
2022-08-25T16:04:28.349Z,26.42
2022-08-25T16:05:28.332Z,26.40
2022-08-25T16:06:28.354Z,26.39
2022-08-25T16:07:28.301Z,26.37
2022-08-25T16:08:28.292Z,26.35
2022-08-25T16:09:28.271Z,26.32
2022-08-25T16:10:28.272Z,26.32
2022-08-25T16:11:28.262Z,26.29
2022-08-25T16:12:28.250Z,26.27
2022-08-25T16:13:28.249Z,26.28
2022-08-25T16:14:28.243Z,26.25
2022-08-25T16:15:28.916Z,26.24
2022-08-25T16:16:28.245Z,26.22
2022-08-25T16:17:28.184Z,26.18
2022-08-25T16:18:28.160Z,26.18
2022-08-25T16:19:28.142Z,26.17
2022-08-25T16:20:28.131Z,26.15
2022-08-25T16:21:29.076Z,26.12
2022-08-25T16:22:28.130Z,26.12
2022-08-25T16:23:28.100Z,26.08
2022-08-25T16:24:28.091Z,26.09
2022-08-25T16:25:28.079Z,26.08
2022-08-25T16:26:28.060Z,26.06
2022-08-25T16:27:28.069Z,26.04
2022-08-25T16:28:29.049Z,26.04
2022-08-25T16:29:28.020Z,26.02
2022-08-25T16:30:29.020Z,25.99
2022-08-25T16:31:28.038Z,25.98
2022-08-25T16:32:27.980Z,25.98
2022-08-25T16:33:27.960Z,25.94
2022-08-25T16:34:28.529Z,25.94
2022-08-25T16:35:27.951Z,25.94
2022-08-25T16:36:28.054Z,25.93
2022-08-25T16:37:27.918Z,25.91
2022-08-25T16:38:27.898Z,25.91
2022-08-25T16:39:27.909Z,25.91
2022-08-25T16:40:27.941Z,25.89
2022-08-25T16:41:28.076Z,25.87
2022-08-25T16:42:27.857Z,25.87
2022-08-25T16:43:27.841Z,25.87
2022-08-25T16:44:27.828Z,25.84
2022-08-25T16:45:27.827Z,25.84
2022-08-25T16:46:27.825Z,25.83
2022-08-25T16:47:27.788Z,25.80
2022-08-25T16:48:27.767Z,25.77
2022-08-25T16:49:27.764Z,25.79
2022-08-25T16:50:27.766Z,25.75
2022-08-25T16:51:29.760Z,25.74
2022-08-25T16:52:28.370Z,25.74
2022-08-25T16:53:27.750Z,25.72
2022-08-25T16:54:27.687Z,25.69
2022-08-25T16:55:27.708Z,25.69
2022-08-25T16:56:27.716Z,25.67
2022-08-25T16:57:27.710Z,25.65
2022-08-25T16:58:27.745Z,25.62
2022-08-25T16:59:27.633Z,25.61
2022-08-25T17:00:27.634Z,25.59
2022-08-25T17:01:27.599Z,25.56
2022-08-25T17:02:27.642Z,25.53
2022-08-25T17:03:29.984Z,25.52
2022-08-25T17:04:32.168Z,25.50
2022-08-25T17:05:27.557Z,25.46
2022-08-25T17:06:27.535Z,25.43
2022-08-25T17:07:27.523Z,25.42
2022-08-25T17:08:27.513Z,25.39
2022-08-25T17:09:27.495Z,25.38
2022-08-25T17:10:27.492Z,25.34
2022-08-25T17:11:27.474Z,25.32
2022-08-25T17:12:27.455Z,25.31
2022-08-25T17:13:27.452Z,25.30
2022-08-25T17:14:27.431Z,25.27
2022-08-25T17:15:27.424Z,25.25
2022-08-25T17:16:27.476Z,25.24
2022-08-25T17:17:27.495Z,25.19
2022-08-25T17:18:27.379Z,25.16
2022-08-25T17:19:27.393Z,25.12
2022-08-25T17:20:28.275Z,25.10
2022-08-25T17:21:27.341Z,25.09
2022-08-25T17:22:42.167Z,25.06
2022-08-25T17:23:27.331Z,25.01
2022-08-25T17:24:29.214Z,24.98
2022-08-25T17:25:27.637Z,24.98
2022-08-25T17:26:27.846Z,24.94
2022-08-25T17:27:27.263Z,24.90
2022-08-25T17:28:27.315Z,24.88
2022-08-25T17:29:27.250Z,24.83
2022-08-25T17:30:27.215Z,24.82
2022-08-25T17:31:27.221Z,24.79
2022-08-25T17:32:28.984Z,24.77
2022-08-25T17:33:28.038Z,24.73
2022-08-25T17:34:27.171Z,24.71
2022-08-25T17:35:27.161Z,24.68
2022-08-25T17:36:27.528Z,24.63
2022-08-25T17:37:27.132Z,24.60
